Time;durP1;ratioP1;P1;durP2;ratioP2;P2;SDS_P1;SDS_P2;PMS_P1;PMS_P2;Temp;Humidity;BMP_temperature;BMP_pressure;BME280_temperature;BME280_humidity;BME280_pressure;Samples;Min_cycle;Max_cycle;Signal;HPM_P1;HPM_P2
2023/08/20 00:03:03;;;;;;;15.80;5.45;;;;;;;20.78;100.00;101034.78;6185243;23;20530;-79
2023/08/20 00:06:07;;;;;;;8.93;5.00;;;;;;;20.76;100.00;101034.09;6166929;23;20024;-79
2023/08/20 00:09:12;;;;;;;9.00;4.57;;;;;;;20.73;100.00;101039.66;6185237;23;20027;-79
2023/08/20 00:12:15;;;;;;;11.90;4.80;;;;;;;20.65;100.00;101035.84;6185075;23;20023;-79
2023/08/20 00:15:22;;;;;;;11.35;4.72;;;;;;;20.65;100.00;101032.38;6167123;23;20027;-80
2023/08/20 00:18:26;;;;;;;11.20;4.90;;;;;;;20.65;100.00;101035.03;6185069;23;20063;-79
2023/08/20 00:21:31;;;;;;;13.73;5.00;;;;;;;20.61;100.00;101034.44;6185192;23;20024;-79
2023/08/20 00:24:35;;;;;;;9.65;4.93;;;;;;;20.57;100.00;101025.03;6184973;23;20024;-79
2023/08/20 00:27:39;;;;;;;11.85;4.85;;;;;;;20.59;100.00;101031.06;6184667;23;20075;-77
2023/08/20 00:30:43;;;;;;;15.13;5.03;;;;;;;20.59;100.00;101031.06;6184808;23;20063;-78
2023/08/20 00:33:47;;;;;;;10.50;5.20;;;;;;;20.55;100.00;101029.66;6184541;23;20087;-79
2023/08/20 00:36:50;;;;;;;13.82;5.72;;;;;;;20.55;100.00;101034.97;6185081;23;20031;-80
2023/08/20 00:39:54;;;;;;;19.45;7.10;;;;;;;20.64;100.00;101028.88;6166916;23;20094;-80
2023/08/20 00:42:58;;;;;;;22.65;10.07;;;;;;;20.72;100.00;101033.50;6166919;23;20075;-80
2023/08/20 00:46:01;;;;;;;26.85;9.80;;;;;;;20.61;100.00;101034.44;6166678;23;20402;-83
2023/08/20 00:49:05;;;;;;;24.25;10.70;;;;;;;20.64;100.00;101026.22;6166620;23;20099;-79
2023/08/20 00:52:14;;;;;;;22.35;8.73;;;;;;;20.65;100.00;101035.84;6166853;23;20027;-79
2023/08/20 00:55:18;;;;;;;20.77;8.80;;;;;;;20.53;100.00;101030.75;6166558;23;20501;-79
2023/08/20 00:58:24;;;;;;;27.55;8.57;;;;;;;20.48;100.00;101022.31;6184856;23;20099;-80
2023/08/20 01:01:28;;;;;;;25.92;8.13;;;;;;;20.43;100.00;101034.19;6184971;23;20070;-79
2023/08/20 01:04:35;;;;;;;19.35;9.48;;;;;;;20.43;100.00;101033.34;6184798;23;20473;-79
2023/08/20 01:07:55;;;;;;;22.40;7.53;;;;;;;20.40;100.00;101037.09;6184811;23;20027;-78
2023/08/20 01:11:07;;;;;;;18.13;8.75;;;;;;;20.36;100.00;101037.50;6184948;23;20032;-79
2023/08/20 01:14:17;;;;;;;26.63;9.13;;;;;;;20.37;100.00;101041.84;6166644;23;20056;-79
2023/08/20 01:17:20;;;;;;;21.20;8.88;;;;;;;20.34;100.00;101044.75;6166590;23;20031;-78
2023/08/20 01:20:30;;;;;;;16.50;8.07;;;;;;;20.35;100.00;101052.56;6184696;23;20354;-78
2023/08/20 01:23:52;;;;;;;21.85;8.80;;;;;;;20.38;100.00;101054.13;6184620;23;20104;-79
2023/08/20 01:27:35;;;;;;;29.80;9.18;;;;;;;20.34;100.00;101052.72;6184617;23;20028;-78
2023/08/20 01:30:39;;;;;;;19.92;8.23;;;;;;;20.30;100.00;101052.13;6184742;23;20354;-79
2023/08/20 01:33:43;;;;;;;14.35;8.13;;;;;;;20.29;100.00;101060.22;6184252;23;20028;-79
2023/08/20 01:36:46;;;;;;;25.25;8.38;;;;;;;20.28;100.00;101066.50;6184657;23;20028;-78
2023/08/20 01:39:49;;;;;;;18.90;8.40;;;;;;;20.37;100.00;101065.72;6167399;23;20027;-78
2023/08/20 01:42:53;;;;;;;21.25;8.70;;;;;;;20.40;100.00;101061.00;6186410;23;20063;-80
2023/08/20 01:45:56;;;;;;;17.90;8.90;;;;;;;20.31;100.00;101058.28;6186539;23;20074;-81
2023/08/20 01:48:59;;;;;;;30.92;8.50;;;;;;;20.25;100.00;101069.44;6168003;23;20405;-80
2023/08/20 01:52:03;;;;;;;24.42;8.77;;;;;;;20.17;100.00;101073.56;6186203;23;20123;-80
2023/08/20 01:55:07;;;;;;;17.23;8.38;;;;;;;20.14;100.00;101079.13;6186429;23;20036;-81
2023/08/20 01:58:11;;;;;;;18.85;7.80;;;;;;;20.12;100.00;101077.56;6186343;23;20063;-80
2023/08/20 02:01:15;;;;;;;28.00;8.60;;;;;;;20.14;100.00;101073.84;6185317;23;20032;-80
2023/08/20 02:04:18;;;;;;;14.85;8.38;;;;;;;20.08;100.00;101078.81;6167828;23;20079;-80
2023/08/20 02:07:22;;;;;;;25.67;9.32;;;;;;;20.02;100.00;101074.00;6167965;23;20055;-80
2023/08/20 02:10:25;;;;;;;21.30;7.85;;;;;;;20.00;100.00;101068.81;6186234;23;20083;-81
2023/08/20 02:13:29;;;;;;;9.15;6.55;;;;;;;19.94;100.00;101072.84;6167911;23;20361;-80
2023/08/20 02:16:32;;;;;;;13.35;7.03;;;;;;;20.02;100.00;101069.53;6168018;23;20472;-80
2023/08/20 02:19:36;;;;;;;10.50;6.80;;;;;;;20.14;100.00;101073.84;6186015;23;20040;-81
2023/08/20 02:22:40;;;;;;;8.88;6.60;;;;;;;20.13;100.00;101072.16;6186018;23;20032;-81
2023/08/20 02:25:44;;;;;;;9.95;6.50;;;;;;;20.06;100.00;101065.66;6186308;23;20090;-81
2023/08/20 02:28:48;;;;;;;16.33;7.47;;;;;;;20.03;100.00;101060.59;6167871;23;20535;-81
2023/08/20 02:31:51;;;;;;;14.80;6.88;;;;;;;19.99;100.00;101053.88;6185972;23;20096;-81
2023/08/20 02:34:54;;;;;;;15.05;6.30;;;;;;;19.98;100.00;101049.53;6184711;23;20032;-81
2023/08/20 02:37:58;;;;;;;12.30;7.40;;;;;;;19.97;100.00;101042.53;6186190;23;20024;-81
2023/08/20 02:41:03;;;;;;;20.95;6.90;;;;;;;19.97;100.00;101045.19;6184926;23;20027;-81
2023/08/20 02:44:06;;;;;;;20.83;5.03;;;;;;;19.90;100.00;101042.19;6167685;23;20081;-80
2023/08/20 02:47:10;;;;;;;15.45;6.78;;;;;;;19.92;100.00;101042.09;6167905;23;20028;-80
2023/08/20 02:50:13;;;;;;;12.02;5.72;;;;;;;19.89;100.00;101048.50;6186008;23;20087;-80
2023/08/20 02:53:18;;;;;;;18.35;7.65;;;;;;;19.94;100.00;101041.00;6185851;23;20033;-81
2023/08/20 02:56:22;;;;;;;21.25;7.18;;;;;;;19.89;100.00;101037.88;6167672;23;20516;-81
2023/08/20 02:59:28;;;;;;;11.88;7.53;;;;;;;19.85;100.00;101039.09;6185723;23;20024;-81
2023/08/20 03:02:31;;;;;;;14.52;7.35;;;;;;;19.82;100.00;101035.88;6167605;23;20403;-81
2023/08/20 03:05:35;;;;;;;18.58;7.43;;;;;;;19.77;100.00;101038.06;6184778;23;20083;-81
2023/08/20 03:08:39;;;;;;;16.67;8.68;;;;;;;19.71;100.00;101045.53;6185745;23;20080;-81
2023/08/20 03:11:42;;;;;;;13.93;8.65;;;;;;;19.69;100.00;101050.16;6167499;23;20027;-80
2023/08/20 03:14:46;;;;;;;12.05;8.18;;;;;;;19.66;100.00;101057.53;6167521;23;20040;-78
2023/08/20 03:17:49;;;;;;;18.58;8.40;;;;;;;19.58;100.00;101060.75;6185580;23;20460;-79
2023/08/20 03:20:55;;;;;;;14.55;8.40;;;;;;;19.57;100.00;101061.72;6185449;23;20031;-78
2023/08/20 03:24:01;;;;;;;19.55;8.75;;;;;;;19.54;100.00;101064.63;6185519;23;20024;-79
2023/08/20 03:27:04;;;;;;;17.08;8.20;;;;;;;19.45;100.00;101070.69;6185531;23;20109;-79
2023/08/20 03:30:10;;;;;;;23.00;7.95;;;;;;;19.40;100.00;101062.25;6184340;23;20028;-79
2023/08/20 03:33:13;;;;;;;23.48;7.90;;;;;;;19.40;100.00;101072.84;6184396;23;20067;-80
2023/08/20 03:36:17;;;;;;;17.55;8.05;;;;;;;19.34;100.00;101073.38;6167101;23;20480;-79
2023/08/20 03:39:21;;;;;;;19.95;9.75;;;;;;;19.42;100.00;101070.94;6185203;23;20028;-79
2023/08/20 03:42:24;;;;;;;24.40;10.65;;;;;;;19.45;100.00;101081.28;6167053;23;20146;-79
2023/08/20 03:45:29;;;;;;;26.25;12.00;;;;;;;19.37;100.00;101079.25;6184224;23;20518;-79
2023/08/20 03:48:33;;;;;;;28.92;13.48;;;;;;;19.32;100.00;101083.25;6166964;23;20027;-79
2023/08/20 03:51:37;;;;;;;30.75;9.95;;;;;;;19.22;100.00;101089.28;6167208;23;20082;-79
2023/08/20 03:54:40;;;;;;;26.10;9.82;;;;;;;19.25;100.00;101088.19;6166795;23;20028;-79
2023/08/20 03:57:44;;;;;;;18.50;10.13;;;;;;;19.22;100.00;101091.94;6185173;23;20024;-79
2023/08/20 04:00:50;;;;;;;17.70;8.30;;;;;;;19.25;100.00;101093.50;6185163;23;20070;-79
2023/08/20 04:03:53;;;;;;;18.45;7.63;;;;;;;19.22;100.00;101094.59;6185036;23;20023;-79
2023/08/20 04:06:56;;;;;;;16.52;7.43;;;;;;;19.20;100.00;101099.16;6185217;23;20500;-79
2023/08/20 04:09:59;;;;;;;9.68;6.55;;;;;;;19.27;100.00;101104.81;6166852;23;20402;-79
2023/08/20 04:13:03;;;;;;;17.02;7.30;;;;;;;19.30;100.00;101104.56;6184961;23;20027;-79
2023/08/20 04:16:07;;;;;;;18.52;7.40;;;;;;;19.28;100.00;101104.69;6184061;23;20023;-79
2023/08/20 04:19:10;;;;;;;8.32;6.70;;;;;;;19.37;100.00;101099.59;6166763;23;20354;-79
2023/08/20 04:22:13;;;;;;;18.25;7.63;;;;;;;19.38;100.00;101085.41;6184944;23;20028;-79
2023/08/20 04:25:17;;;;;;;15.82;6.82;;;;;;;19.32;100.00;101094.69;6183320;23;20043;-79
2023/08/20 04:28:20;;;;;;;8.82;7.43;;;;;;;19.35;100.00;101104.22;6182232;23;20103;-79
2023/08/20 04:31:23;;;;;;;11.45;7.15;;;;;;;19.38;100.00;101101.31;6164630;23;20075;-79
2023/08/20 04:34:38;;;;;;;10.63;6.50;;;;;;;19.32;100.00;101101.81;6172118;23;20120;-79
2023/08/20 04:37:42;;;;;;;14.85;8.43;;;;;;;19.27;100.00;101107.47;6153493;23;20028;-80
2023/08/20 04:40:47;;;;;;;13.32;7.85;;;;;;;19.27;100.00;101108.31;6152063;23;20531;-80
2023/08/20 04:43:50;;;;;;;13.30;7.32;;;;;;;19.27;100.00;101105.69;6152313;23;20020;-78
2023/08/20 04:46:54;;;;;;;11.95;6.80;;;;;;;19.24;100.00;101121.81;6151996;23;20072;-78
2023/08/20 04:49:58;;;;;;;8.75;6.57;;;;;;;19.20;100.00;101119.53;6152231;23;20100;-80
2023/08/20 04:53:02;;;;;;;10.68;6.65;;;;;;;19.25;100.00;101120.84;6153023;23;20330;-80
2023/08/20 04:56:05;;;;;;;11.30;5.95;;;;;;;19.30;100.00;101125.78;6152064;23;20442;-81
2023/08/20 04:59:08;;;;;;;11.93;6.53;;;;;;;19.31;100.00;101124.81;6152930;23;20124;-81
2023/08/20 05:02:29;;;;;;;9.80;6.90;;;;;;;19.42;100.00;101126.63;6153214;23;20024;-81
2023/08/20 05:05:36;;;;;;;8.45;5.95;;;;;;;19.51;100.00;101133.84;6152170;23;20076;-80
2023/08/20 05:08:39;;;;;;;15.88;7.05;;;;;;;19.52;100.00;101136.34;6152160;23;20076;-81
2023/08/20 05:11:45;;;;;;;10.68;6.43;;;;;;;19.55;100.00;101145.88;6152091;23;20028;-82
2023/08/20 05:14:48;;;;;;;11.63;7.22;;;;;;;19.50;100.00;101138.31;6152812;23;20395;-86
2023/08/20 05:17:51;;;;;;;9.93;7.20;;;;;;;19.55;100.00;101156.50;6154277;23;20048;-86
2023/08/20 05:20:55;;;;;;;12.85;6.60;;;;;;;19.60;100.00;101154.31;6154311;23;20044;-85
2023/08/20 05:23:58;;;;;;;27.55;7.07;;;;;;;19.54;100.00;101160.13;6154161;23;20025;-67
2023/08/20 05:31:24;;;;;;;7.20;6.50;;;;;;;19.60;100.00;101162.28;6213352;23;20096;-67
2023/08/20 05:34:28;;;;;;;6.20;5.47;;;;;;;19.54;100.00;101160.13;6211371;23;20086;-67
2023/08/20 05:37:33;;;;;;;5.47;4.30;;;;;;;19.48;100.00;101161.44;6213315;23;20043;-66
2023/08/20 05:40:36;;;;;;;6.40;4.95;;;;;;;19.48;100.00;101161.44;6231125;23;20066;-66
2023/08/20 05:43:40;;;;;;;8.27;5.30;;;;;;;19.56;100.00;101160.84;6213732;23;20378;-70
2023/08/20 05:46:43;;;;;;;8.68;4.57;;;;;;;19.67;100.00;101160.00;6213214;23;20469;-73
2023/08/20 05:49:49;;;;;;;10.32;6.57;;;;;;;19.78;100.00;101153.81;6212856;23;20024;-68
2023/08/20 05:52:52;;;;;;;7.65;5.95;;;;;;;19.68;100.00;101162.53;6214079;23;20083;-66
2023/08/20 05:55:55;;;;;;;8.50;5.85;;;;;;;19.69;100.00;101163.41;6214413;23;20086;-67
2023/08/20 05:59:24;;;;;;;11.73;6.10;;;;;;;19.62;100.00;101163.00;6231141;23;20148;-66
2023/08/20 06:20:44;;;;;;;9.00;5.68;;;;;;;19.73;100.00;101181.59;5024281;28;20393;-66
2023/08/20 06:23:46;;;;;;;7.10;5.88;;;;;;;19.76;100.00;101180.50;5024578;28;20045;-65
2023/08/20 06:26:51;;;;;;;6.82;5.38;;;;;;;19.83;100.00;101175.53;5023337;28;20104;-74
2023/08/20 06:29:55;;;;;;;5.97;4.88;;;;;;;19.89;100.00;101181.19;5023676;28;20122;-67
2023/08/20 06:32:58;;;;;;;9.65;5.60;;;;;;;19.92;100.00;101180.09;5024421;28;20132;-68
2023/08/20 06:36:01;;;;;;;6.05;5.28;;;;;;;20.04;100.00;101173.78;5023736;28;20045;-66
2023/08/20 06:39:04;;;;;;;9.48;5.55;;;;;;;20.12;100.00;101175.81;5024628;28;20076;-67
2023/08/20 06:42:08;;;;;;;8.82;5.57;;;;;;;20.14;100.00;101182.69;5024134;28;20657;-67
2023/08/20 06:45:11;;;;;;;7.30;4.25;;;;;;;20.14;100.00;101177.38;5023716;28;20049;-67
2023/08/20 06:48:16;;;;;;;5.55;5.00;;;;;;;20.18;100.00;101180.63;5023493;28;20418;-67
2023/08/20 06:51:21;;;;;;;4.80;4.30;;;;;;;20.20;100.00;101174.22;5023762;28;20088;-67
2023/08/20 06:54:24;;;;;;;8.32;4.93;;;;;;;20.30;100.00;101179.59;5023858;28;20513;-67
2023/08/20 06:57:27;;;;;;;9.63;4.60;;;;;;;20.37;100.00;101179.94;5024288;28;20075;-67
2023/08/20 07:00:30;;;;;;;8.15;4.95;;;;;;;20.47;100.00;101183.50;5023881;28;20048;-66
2023/08/20 07:03:39;;;;;;;6.07;4.40;;;;;;;20.55;100.00;101177.56;5024310;28;20099;-67
2023/08/20 07:06:42;;;;;;;8.52;5.05;;;;;;;20.67;100.00;101173.88;5024506;28;20052;-67
2023/08/20 07:09:45;;;;;;;5.70;4.43;;;;;;;20.84;100.00;101172.47;5023304;28;20136;-68
2023/08/20 07:12:49;;;;;;;7.97;4.45;;;;;;;20.90;100.00;101172.78;5024130;28;20107;-67
2023/08/20 07:15:52;;;;;;;6.70;4.78;;;;;;;21.06;100.00;101172.31;5023744;28;20072;-67
2023/08/20 07:18:55;;;;;;;5.85;4.85;;;;;;;21.19;100.00;101166.78;5024045;28;20078;-68
2023/08/20 07:21:59;;;;;;;7.82;5.07;;;;;;;21.34;100.00;101164.56;5009540;28;20071;-66
2023/08/20 07:25:03;;;;;;;7.25;5.72;;;;;;;21.39;100.00;101162.41;5010798;28;20159;-68
2023/08/20 07:28:08;;;;;;;7.03;5.47;;;;;;;21.49;100.00;101160.59;5010045;28;20049;-67
2023/08/20 07:31:11;;;;;;;6.72;6.13;;;;;;;21.56;100.00;101159.06;5010479;28;20053;-66
2023/08/20 07:34:15;;;;;;;8.38;6.25;;;;;;;21.66;100.00;101163.59;5010542;28;20063;-67
2023/08/20 07:37:18;;;;;;;6.60;5.63;;;;;;;21.76;100.00;101164.44;5009585;28;20426;-66
2023/08/20 07:40:23;;;;;;;7.88;5.70;;;;;;;21.81;100.00;101164.88;5010936;28;20084;-67
2023/08/20 07:43:26;;;;;;;7.53;5.40;;;;;;;21.89;100.00;101165.06;5010700;28;20049;-67
2023/08/20 07:46:33;;;;;;;8.40;5.40;;;;;;;21.94;100.00;101161.97;5010748;28;20107;-67
2023/08/20 07:49:36;;;;;;;7.07;5.43;;;;;;;21.98;100.00;101153.53;5010739;28;20076;-68
2023/08/20 07:52:43;;;;;;;8.75;5.13;;;;;;;22.06;100.00;101152.88;5010639;28;20099;-68
2023/08/20 07:55:49;;;;;;;9.55;5.95;;;;;;;22.17;100.00;101162.56;5010468;28;20057;-68
2023/08/20 07:58:53;;;;;;;9.18;5.95;;;;;;;22.26;100.00;101161.72;5010107;28;20044;-68
2023/08/20 08:01:56;;;;;;;9.40;5.82;;;;;;;22.36;100.00;101161.72;5010940;28;20057;-67
2023/08/20 08:04:59;;;;;;;6.78;5.22;;;;;;;22.40;100.00;101163.97;5009636;28;20052;-68
2023/08/20 08:08:03;;;;;;;9.57;5.60;;;;;;;22.44;100.00;101154.72;5010274;28;20532;-67
2023/08/20 08:11:06;;;;;;;9.30;5.80;;;;;;;22.51;99.15;101166.47;5010486;28;20151;-67
2023/08/20 08:14:11;;;;;;;13.00;5.85;;;;;;;22.59;99.01;101167.59;5010140;28;20138;-67
2023/08/20 08:17:15;;;;;;;7.40;6.20;;;;;;;22.62;97.08;101167.28;5009716;28;20048;-68
2023/08/20 08:20:18;;;;;;;10.85;6.00;;;;;;;22.69;97.81;101168.44;5009470;28;20065;-67
2023/08/20 08:23:22;;;;;;;9.63;7.00;;;;;;;22.71;96.41;101172.63;5010026;28;20131;-67
2023/08/20 08:26:26;;;;;;;7.70;5.97;;;;;;;22.73;96.73;101181.31;5009277;28;20406;-67
2023/08/20 08:29:30;;;;;;;8.77;6.28;;;;;;;22.78;96.25;101178.22;5010045;28;20415;-67
2023/08/20 08:32:33;;;;;;;7.88;6.07;;;;;;;22.77;94.51;101179.19;5008900;28;20117;-66
2023/08/20 08:35:37;;;;;;;11.40;6.30;;;;;;;22.90;94.08;101170.88;5009690;28;20141;-67
2023/08/20 08:38:40;;;;;;;10.73;6.13;;;;;;;23.01;94.01;101168.09;5009801;28;20398;-66
2023/08/20 08:41:49;;;;;;;9.18;6.97;;;;;;;23.10;91.98;101175.22;5009485;28;20072;-66
2023/08/20 08:44:52;;;;;;;6.38;5.78;;;;;;;23.08;92.85;101177.19;5008391;28;20528;-67
2023/08/20 08:47:56;;;;;;;12.38;6.85;;;;;;;23.22;91.74;101175.88;5008679;28;20081;-67
2023/08/20 08:51:01;;;;;;;10.15;6.28;;;;;;;23.31;91.17;101180.31;5009064;28;20122;-67
2023/08/20 08:54:04;;;;;;;12.52;6.57;;;;;;;23.35;91.35;101176.38;5009659;28;20505;-67
2023/08/20 08:57:08;;;;;;;8.20;6.38;;;;;;;23.46;90.95;101164.69;5008955;28;20113;-66
2023/08/20 09:00:12;;;;;;;8.27;6.50;;;;;;;23.52;90.17;101165.91;5009037;28;20149;-67
2023/08/20 09:03:15;;;;;;;9.65;6.57;;;;;;;23.59;89.13;101167.84;5009138;28;20111;-67
2023/08/20 09:06:18;;;;;;;9.10;6.50;;;;;;;23.67;88.35;101161.72;5008966;28;20081;-67
2023/08/20 09:09:22;;;;;;;8.43;6.97;;;;;;;23.74;87.99;101170.00;5009288;28;20076;-67
2023/08/20 09:12:25;;;;;;;7.65;6.63;;;;;;;23.82;87.47;101172.78;5009323;28;20048;-67
2023/08/20 09:15:33;;;;;;;9.10;6.53;;;;;;;23.83;86.92;101164.59;5007857;28;20434;-67
2023/08/20 09:18:45;;;;;;;13.40;6.57;;;;;;;23.89;87.04;101164.00;5008924;28;20410;-67
2023/08/20 09:21:49;;;;;;;13.52;7.32;;;;;;;24.05;86.45;101160.66;5008949;28;20081;-67
2023/08/20 09:24:56;;;;;;;10.55;7.28;;;;;;;24.10;84.84;101161.06;5008972;28;20065;-67
2023/08/20 09:28:03;;;;;;;8.35;6.82;;;;;;;24.12;84.82;101160.88;5008849;28;20217;-67
2023/08/20 09:31:06;;;;;;;10.52;7.03;;;;;;;24.18;84.98;101160.28;5009015;28;20049;-68
2023/08/20 09:34:12;;;;;;;7.90;6.38;;;;;;;24.24;84.71;101162.34;5008247;28;20068;-69
2023/08/20 09:37:17;;;;;;;9.63;6.90;;;;;;;24.32;83.66;101162.41;5009107;28;20061;-70
2023/08/20 09:40:21;;;;;;;8.73;6.65;;;;;;;24.33;83.28;101160.56;5008336;28;20094;-69
2023/08/20 09:43:29;;;;;;;11.55;6.35;;;;;;;24.33;83.99;101156.06;5007542;28;20466;-69
2023/08/20 09:46:35;;;;;;;9.13;6.50;;;;;;;24.37;82.83;101162.78;5008676;28;20072;-67
2023/08/20 09:49:44;;;;;;;8.50;6.60;;;;;;;24.42;82.40;101158.84;5007903;28;20041;-68
2023/08/20 09:53:06;;;;;;;9.65;6.63;;;;;;;24.42;82.40;101159.69;5008176;28;20049;-67
2023/08/20 09:56:13;;;;;;;;;;;;;;;24.58;80.81;101158.97;5008921;28;20063;-68
2023/08/20 09:59:17;;;;;;;10.15;5.63;;;;;;;24.58;80.23;101161.66;4999312;28;19984;-66
2023/08/20 10:02:21;;;;;;;7.10;6.20;;;;;;;24.64;80.58;101161.03;4996232;28;20081;-68
2023/08/20 10:05:31;;;;;;;10.25;6.57;;;;;;;24.72;81.60;101154.88;5000084;28;20110;-67
2023/08/20 10:08:38;;;;;;;8.95;5.55;;;;;;;24.77;80.75;101152.59;4998068;28;20041;-69
2023/08/20 10:11:46;;;;;;;7.95;5.20;;;;;;;25.05;77.54;101145.22;5004651;28;20057;-68
2023/08/20 10:14:52;;;;;;;6.38;4.60;;;;;;;25.03;74.81;101140.03;5000233;28;20556;-66
2023/08/20 10:18:02;;;;;;;6.13;4.32;;;;;;;25.04;74.93;101138.19;4998050;28;20506;-77
2023/08/20 10:21:09;;;;;;;5.85;4.47;;;;;;;25.10;73.37;101139.38;4998632;28;20537;-68
2023/08/20 10:24:19;;;;;;;5.53;4.75;;;;;;;25.11;73.77;101136.56;4998317;28;20092;-68
2023/08/20 10:27:32;;;;;;;8.50;6.05;;;;;;;25.15;74.34;101137.09;4998364;28;20052;-66
2023/08/20 10:30:36;;;;;;;5.53;4.00;;;;;;;25.27;73.83;101135.81;4993969;28;20099;-69
2023/08/20 10:33:54;;;;;;;7.68;4.65;;;;;;;25.48;70.63;101135.38;4999098;28;20399;-67
2023/08/20 10:37:02;;;;;;;4.72;3.95;;;;;;;25.44;67.21;101134.03;4996626;28;20076;-73
2023/08/20 10:40:07;;;;;;;6.20;4.20;;;;;;;25.44;67.53;101128.69;4997080;28;20084;-67
2023/08/20 10:43:23;;;;;;;7.82;4.22;;;;;;;25.50;68.66;101133.41;4997685;28;20099;-68
2023/08/20 10:46:30;;;;;;;11.55;4.60;;;;;;;25.75;67.64;101134.31;4997379;28;20402;-68
2023/08/20 10:49:34;;;;;;;6.97;4.82;;;;;;;25.81;69.15;101130.97;4998032;28;20458;-67
2023/08/20 10:52:47;;;;;;;6.30;4.25;;;;;;;25.80;66.44;101129.28;4998643;28;20076;-67
2023/08/20 10:55:52;;;;;;;5.13;3.65;;;;;;;25.75;65.27;101123.59;4998852;28;20087;-67
2023/08/20 10:58:54;;;;;;;5.35;4.00;;;;;;;25.84;64.26;101119.09;5001450;28;20033;-67
2023/08/20 11:01:58;;;;;;;6.50;4.50;;;;;;;25.79;65.09;101126.78;5001841;28;20083;-67
2023/08/20 11:05:18;;;;;;;6.35;3.55;;;;;;;25.86;66.70;101125.13;5002090;28;20041;-85
2023/08/20 11:08:26;;;;;;;6.40;4.30;;;;;;;25.84;65.77;101125.28;5002524;28;20049;-81
2023/08/20 11:11:31;;;;;;;8.13;4.18;;;;;;;25.78;65.27;101127.75;5004167;28;20040;-82
2023/08/20 11:14:35;;;;;;;6.30;4.38;;;;;;;25.92;65.00;101122.63;5002707;28;20041;-82
2023/08/20 11:17:50;;;;;;;6.10;4.00;;;;;;;26.02;65.17;101122.47;4997399;28;20137;-81
2023/08/20 11:20:57;;;;;;;5.63;3.78;;;;;;;26.06;66.34;101117.59;5002932;28;20054;-82
2023/08/20 11:24:04;;;;;;;7.22;3.67;;;;;;;26.27;64.96;101117.13;4996283;28;20108;-80
2023/08/20 11:27:10;;;;;;;5.30;3.58;;;;;;;26.28;64.55;101121.47;5002756;28;20053;-81
2023/08/20 11:30:16;;;;;;;8.93;4.80;;;;;;;26.40;63.64;101122.78;5002231;28;20122;-81
2023/08/20 11:33:35;;;;;;;4.65;3.58;;;;;;;26.49;62.71;101113.78;5003368;28;20041;-82
2023/08/20 11:36:42;;;;;;;5.47;3.55;;;;;;;26.61;62.43;101109.72;5003088;28;20063;-83
2023/08/20 11:39:47;;;;;;;7.32;3.95;;;;;;;26.81;62.66;101118.22;5000568;28;20057;-83
2023/08/20 11:42:55;;;;;;;6.38;3.85;;;;;;;26.94;61.12;101119.53;5001628;28;20122;-81
2023/08/20 11:45:59;;;;;;;6.65;3.47;;;;;;;26.97;59.25;101114.66;4999479;28;20037;-83
2023/08/20 11:49:07;;;;;;;6.07;3.08;;;;;;;26.99;58.62;101114.47;4997004;28;20113;-82
2023/08/20 11:52:14;;;;;;;3.80;2.78;;;;;;;27.20;58.71;101106.69;5002363;28;20110;-83
2023/08/20 11:55:30;;;;;;;5.15;3.42;;;;;;;27.38;57.00;101098.41;5005373;28;20053;-82
2023/08/20 11:58:33;;;;;;;4.47;2.83;;;;;;;27.54;56.82;101101.00;5010936;28;20563;-81
2023/08/20 12:01:36;;;;;;;6.03;2.92;;;;;;;27.71;55.17;101104.41;5010192;28;20093;-79
2023/08/20 12:04:40;;;;;;;5.90;3.75;;;;;;;27.98;53.97;101105.75;5010918;28;20559;-81
2023/08/20 12:08:05;;;;;;;7.35;3.10;;;;;;;27.94;54.66;101096.38;5010370;28;20052;-78
2023/08/20 12:11:34;;;;;;;8.38;3.30;;;;;;;28.14;55.09;101102.06;5010754;28;20057;-86
2023/08/20 12:14:42;;;;;;;7.00;4.05;;;;;;;28.28;54.50;101090.53;5010354;28;20045;-80
2023/08/20 12:18:04;;;;;;;3.90;2.80;;;;;;;28.39;53.84;101091.09;5010505;28;20569;-82
2023/08/20 12:21:08;;;;;;;9.93;3.13;;;;;;;28.49;54.36;101092.56;5010587;28;20083;-81
2023/08/20 12:24:14;;;;;;;6.00;3.03;;;;;;;28.65;53.71;101088.00;5010569;28;20060;-79
2023/08/20 12:27:17;;;;;;;7.10;3.20;;;;;;;28.73;52.19;101077.16;5010524;28;20098;-80
2023/08/20 12:30:22;;;;;;;4.18;2.83;;;;;;;28.79;52.89;101087.19;4998465;28;20049;-76
2023/08/20 12:33:32;;;;;;;4.45;2.95;;;;;;;28.72;51.08;101088.94;5010288;28;20102;-72
2023/08/20 12:36:35;;;;;;;4.57;3.30;;;;;;;28.64;50.85;101079.09;4995352;28;20407;-74
2023/08/20 12:39:42;;;;;;;4.93;3.00;;;;;;;28.63;49.55;101071.22;5000344;28;20044;-75
2023/08/20 12:42:50;;;;;;;6.05;2.78;;;;;;;28.71;50.17;101068.44;5001009;28;20057;-76
2023/08/20 12:46:00;;;;;;;8.27;2.83;;;;;;;28.92;49.37;101071.19;4999199;28;20044;-76
2023/08/20 12:49:06;;;;;;;4.15;2.40;;;;;;;29.19;49.06;101071.56;4998560;28;20123;-77
2023/08/20 12:52:10;;;;;;;3.97;2.50;;;;;;;29.33;48.29;101057.22;5000065;28;20103;-76
2023/08/20 12:55:15;;;;;;;5.93;3.08;;;;;;;29.59;47.47;101062.06;5000285;28;20402;-76
2023/08/20 12:58:18;;;;;;;4.28;2.83;;;;;;;29.90;47.83;101058.25;5000421;28;20041;-77
2023/08/20 13:01:22;;;;;;;5.05;2.60;;;;;;;30.19;46.22;101054.56;4998687;28;20041;-77
2023/08/20 13:04:26;;;;;;;5.60;2.50;;;;;;;30.27;46.32;101051.69;4999133;28;20403;-77
2023/08/20 13:07:29;;;;;;;3.08;2.20;;;;;;;30.33;45.34;101053.59;4999204;28;20037;-69
2023/08/20 13:10:32;;;;;;;5.95;2.83;;;;;;;30.22;45.84;101051.47;4999706;28;20040;-70
2023/08/20 13:13:36;;;;;;;3.47;2.20;;;;;;;30.24;47.84;101049.38;4995717;28;20122;-76
2023/08/20 13:16:39;;;;;;;4.32;2.25;;;;;;;29.86;45.54;101048.84;4992047;28;20065;-75
2023/08/20 13:19:42;;;;;;;4.95;2.35;;;;;;;29.68;50.71;101048.50;4999460;28;20057;-71
2023/08/20 13:22:46;;;;;;;5.18;2.63;;;;;;;29.82;51.82;101045.72;4998742;28;20041;-71
2023/08/20 13:25:50;;;;;;;7.20;3.10;;;;;;;29.99;52.51;101051.66;4998964;28;20042;-72
2023/08/20 13:28:54;;;;;;;7.80;2.97;;;;;;;30.08;53.17;101050.47;4999308;28;20037;-72
2023/08/20 13:31:58;;;;;;;4.15;2.35;;;;;;;30.28;52.70;101045.28;4998676;28;20087;-71
2023/08/20 13:35:04;;;;;;;3.70;2.38;;;;;;;30.46;49.66;101041.25;5000131;28;20044;-71
2023/08/20 13:38:10;;;;;;;6.40;2.45;;;;;;;30.65;47.71;101035.13;5003791;28;20571;-72
2023/08/20 13:41:13;;;;;;;4.20;2.50;;;;;;;31.07;48.13;101037.81;4999717;28;20049;-71
2023/08/20 13:44:21;;;;;;;6.05;2.60;;;;;;;31.67;45.84;101034.22;4997275;28;20087;-73
2023/08/20 13:47:25;;;;;;;7.90;2.60;;;;;;;32.22;44.19;101030.50;4997414;28;20099;-74
2023/08/20 16:48:18;;;;;;;8.13;3.03;;;;;;;31.33;48.54;100923.56;4974069;28;20483;-80
2023/08/20 16:51:27;;;;;;;6.57;2.90;;;;;;;31.08;48.84;100932.28;4973585;28;20050;-78
2023/08/20 16:59:41;;;;;;;9.20;2.78;;;;;;;30.46;51.59;100928.75;4973829;28;20041;-82
2023/08/20 17:34:04;;;;;;;;;;;;;;;;;;;;;
2023/08/20 17:44:14;;;;;;;;;;;;;;;;;;;;;
2023/08/20 17:51:54;;;;;;;9.85;3.63;;;;;;;27.73;64.11;100972.59;4916544;28;20488;-86
2023/08/20 17:54:59;;;;;;;13.07;3.60;;;;;;;27.65;65.51;100965.41;4972973;28;20085;-85
2023/08/20 17:58:11;;;;;;;;;;;;;;;27.52;67.04;100968.72;4973459;28;20046;-83
2023/08/20 18:06:05;;;;;;;11.50;4.30;;;;;;;27.24;67.54;100972.94;4972492;28;20042;-83
2023/08/20 18:09:11;;;;;;;13.32;3.75;;;;;;;27.08;68.77;100977.38;4972584;28;20101;-79
2023/08/20 18:12:16;;;;;;;13.68;5.45;;;;;;;26.92;69.03;100980.16;4953380;29;20469;-69
2023/08/20 18:15:19;;;;;;;11.57;4.43;;;;;;;26.72;70.30;100985.13;4953084;29;20098;-81
2023/08/20 18:18:22;;;;;;;11.05;4.20;;;;;;;26.64;70.57;100977.97;4953102;29;20178;-81
2023/08/20 18:21:27;;;;;;;7.45;3.50;;;;;;;26.51;72.33;100992.91;4952922;29;20596;-81
2023/08/20 18:24:30;;;;;;;13.20;4.40;;;;;;;26.25;73.30;100993.13;4953027;29;20077;-81
2023/08/20 18:27:34;;;;;;;10.48;4.10;;;;;;;26.16;73.97;100995.84;4953131;29;20409;-80
2023/08/20 18:30:37;;;;;;;14.77;4.43;;;;;;;25.95;74.91;101000.88;4952638;29;20126;-68